Time;durP1;ratioP1;P1;durP2;ratioP2;P2;SDS_P1;SDS_P2;PMS_P1;PMS_P2;Temp;Humidity;BMP_temperature;BMP_pressure;BME280_temperature;BME280_humidity;BME280_pressure;Samples;Min_cycle;Max_cycle;Signal;HPM_P1;HPM_P2
2023/01/15 00:01:29;;;;;;;38.20;30.48;;;22.90;97.60;;;;;;1968826;72;21153;-82
2023/01/15 00:04:02;;;;;;;36.05;29.52;;;22.90;98.10;;;;;;1965383;73;21077;-82
2023/01/15 00:06:38;;;;;;;39.40;30.92;;;22.90;97.60;;;;;;1972594;72;21140;-83
2023/01/15 00:09:11;;;;;;;41.80;30.75;;;22.80;97.50;;;;;;1968979;73;21061;-83
2023/01/15 00:11:42;;;;;;;42.75;31.82;;;22.80;97.50;;;;;;1958832;72;21195;-83
2023/01/15 00:14:13;;;;;;;40.43;33.30;;;22.70;97.60;;;;;;1968670;73;21550;-83
2023/01/15 00:16:44;;;;;;;47.48;34.63;;;22.70;99.90;;;;;;1969622;72;21143;-82
2023/01/15 00:19:15;;;;;;;42.05;33.25;;;22.70;99.90;;;;;;1969228;72;21101;-82
2023/01/15 00:21:46;;;;;;;44.27;33.15;;;22.90;99.90;;;;;;1969068;71;21176;-82
2023/01/15 00:29:56;;;;;;;43.92;31.95;;;22.70;99.90;;;;;;1924732;73;21242;-82
2023/01/15 00:32:28;;;;;;;39.73;29.65;;;22.80;99.90;;;;;;1941981;74;21207;-83
2023/01/15 00:35:02;;;;;;;42.50;33.10;;;22.80;99.90;;;;;;1924913;74;21557;-83
2023/01/15 00:37:33;;;;;;;45.20;35.15;;;22.80;99.90;;;;;;1943018;73;21073;-83
2023/01/15 00:40:05;;;;;;;46.50;37.20;;;22.90;99.90;;;;;;1943140;74;21064;-82
2023/01/15 00:42:36;;;;;;;44.95;36.30;;;22.80;99.90;;;;;;1929835;74;21212;-83
2023/01/15 00:45:11;;;;;;;46.37;35.75;;;22.90;99.90;;;;;;1941619;73;21153;-82
2023/01/15 00:47:46;;;;;;;50.17;37.20;;;22.90;99.90;;;;;;1941683;73;21165;-83
2023/01/15 00:50:18;;;;;;;52.17;38.17;;;23.10;99.90;;;;;;1936931;74;21149;-70
2023/01/15 00:52:52;;;;;;;45.48;35.40;;;23.10;99.90;;;;;;1937975;74;21581;-72
2023/01/15 00:55:24;;;;;;;52.38;37.90;;;23.10;99.90;;;;;;1935950;73;21733;-72
2023/01/15 00:57:58;;;;;;;48.92;39.42;;;23.10;99.90;;;;;;1935417;72;21803;-72
2023/01/15 01:00:29;;;;;;;49.55;36.03;;;23.20;99.90;;;;;;1940370;74;21094;-73
2023/01/15 01:03:21;;;;;;;48.90;38.15;;;23.20;99.90;;;;;;1938151;74;21128;-72
2023/01/15 01:05:52;;;;;;;54.42;39.92;;;23.30;99.90;;;;;;1870646;75;21186;-74
2023/01/15 01:08:23;;;;;;;49.27;38.60;;;23.40;99.90;;;;;;1882922;74;21103;-71
2023/01/15 01:11:09;;;;;;;50.30;39.23;;;23.40;99.90;;;;;;1892220;74;21132;-71
2023/01/15 01:13:40;;;;;;;53.20;40.90;;;23.50;99.90;;;;;;1899475;74;21178;-71
2023/01/15 01:16:29;;;;;;;50.83;39.88;;;23.60;99.90;;;;;;1880519;74;21193;-73
2023/01/15 01:19:02;;;;;;;52.78;37.23;;;23.80;99.90;;;;;;1880938;74;21083;-71
2023/01/15 01:21:33;;;;;;;53.85;40.03;;;23.60;99.90;;;;;;1871328;75;21130;-72
2023/01/15 01:24:05;;;;;;;47.90;38.30;;;23.70;99.90;;;;;;1828277;77;21209;-73
2023/01/15 01:26:37;;;;;;;48.73;38.45;;;24.00;99.90;;;;;;1903797;74;21184;-73
2023/01/15 01:29:10;;;;;;;48.60;37.85;;;23.90;99.90;;;;;;1859530;75;21075;-73
2023/01/15 01:31:41;;;;;;;48.10;36.90;;;23.90;99.90;;;;;;1901220;74;21186;-73
2023/01/15 01:34:13;;;;;;;49.63;37.03;;;24.00;99.90;;;;;;1887690;74;21126;-71
2023/01/15 01:36:45;;;;;;;48.98;36.88;;;24.00;99.90;;;;;;1863641;75;21693;-72
2023/01/15 01:39:18;;;;;;;48.42;36.60;;;24.40;99.90;;;;;;1869937;75;21194;-73
2023/01/15 01:41:50;;;;;;;45.30;34.48;;;24.20;99.90;;;;;;1842611;77;21119;-71
2023/01/15 01:47:28;;;;;;;39.45;29.20;;;24.40;99.90;;;;;;1852857;76;21252;-72
2023/01/15 01:50:03;;;;;;;39.03;27.87;;;24.70;99.90;;;;;;1842582;76;21206;-73
2023/01/15 01:52:44;;;;;;;40.03;28.77;;;24.50;99.90;;;;;;1852182;76;21240;-71
2023/01/15 01:55:34;;;;;;;42.03;29.23;;;24.80;99.90;;;;;;1842953;76;21182;-73
2023/01/15 01:58:25;;;;;;;36.08;28.35;;;24.90;99.90;;;;;;1839564;76;21184;-72
2023/01/15 02:00:57;;;;;;;36.80;26.87;;;24.80;99.90;;;;;;1853349;76;21111;-71
2023/01/15 02:03:33;;;;;;;36.93;27.93;;;24.90;99.90;;;;;;1844375;76;21503;-73
2023/01/15 02:06:07;;;;;;;34.73;27.10;;;25.10;99.90;;;;;;1856378;76;21685;-72
2023/01/15 02:08:39;;;;;;;41.18;27.30;;;25.20;99.90;;;;;;1853620;76;21251;-72
2023/01/15 02:11:12;;;;;;;33.83;25.85;;;25.10;99.80;;;;;;1852641;76;21622;-71
2023/01/15 02:14:03;;;;;;;40.90;30.15;;;25.20;99.70;;;;;;1852452;77;21143;-72
2023/01/15 02:17:02;;;;;;;32.88;26.05;;;25.30;99.60;;;;;;1890271;74;21208;-72
2023/01/15 02:19:51;;;;;;;35.50;27.65;;;25.40;99.20;;;;;;1894031;76;21573;-72
2023/01/15 02:22:30;;;;;;;34.38;27.30;;;25.40;98.90;;;;;;1886222;74;21220;-72
2023/01/15 02:25:13;;;;;;;36.77;27.07;;;25.50;98.60;;;;;;1889219;75;21643;-71
2023/01/15 02:27:53;;;;;;;35.65;26.55;;;25.60;98.80;;;;;;1896200;74;21196;-73
2023/01/15 02:30:27;;;;;;;34.23;25.25;;;25.70;99.00;;;;;;1889517;76;21081;-72
2023/01/15 02:33:05;;;;;;;31.02;25.05;;;25.70;99.00;;;;;;1891472;74;21149;-72
2023/01/15 02:35:48;;;;;;;33.90;24.80;;;25.70;99.80;;;;;;1866280;75;21186;-72
2023/01/15 02:38:21;;;;;;;35.55;25.37;;;25.90;99.90;;;;;;1904592;74;21130;-71
2023/01/15 02:40:55;;;;;;;37.53;25.48;;;;;;;;;;1901341;74;21067;-72
2023/01/15 02:43:30;;;;;;;32.63;25.30;;;;;;;;;;1893183;74;21100;-72
2023/01/15 02:46:03;;;;;;;30.57;25.80;;;25.70;98.70;;;;;;1894365;74;21163;-72
2023/01/15 02:48:39;;;;;;;32.10;25.50;;;27.10;98.90;;;;;;1886015;74;21135;-73
2023/01/15 02:51:18;;;;;;;33.15;25.45;;;26.00;97.70;;;;;;1896732;74;21143;-73
2023/01/15 02:53:51;;;;;;;33.92;25.60;;;26.10;97.40;;;;;;1895604;74;21542;-72
2023/01/15 02:56:24;;;;;;;32.25;24.77;;;26.10;97.40;;;;;;1902573;74;21205;-72
2023/01/15 02:59:02;;;;;;;33.53;26.68;;;26.30;97.30;;;;;;1895191;74;21178;-72
2023/01/15 03:01:36;;;;;;;30.62;24.50;;;26.30;97.20;;;;;;1896108;74;21594;-72
2023/01/15 03:04:34;;;;;;;;;;;26.30;97.10;;;;;;1881120;75;21156;-72
2023/01/15 03:07:25;;;;;;;28.52;23.65;;;26.40;96.60;;;;;;1874537;75;20151;-72
2023/01/15 03:09:58;;;;;;;26.95;21.57;;;26.40;96.50;;;;;;1903107;74;21638;-72
2023/01/15 03:13:02;;;;;;;26.30;21.68;;;26.50;96.30;;;;;;1900776;74;21596;-72
2023/01/15 03:18:27;;;;;;;27.95;21.77;;;26.70;93.80;;;;;;1797213;78;21243;-72
2023/01/15 03:21:00;;;;;;;25.55;19.60;;;26.90;93.90;;;;;;1832314;75;21160;-72
2023/01/15 03:23:32;;;;;;;27.58;21.07;;;26.90;92.50;;;;;;1908246;74;21200;-71
2023/01/15 03:26:06;;;;;;;28.15;19.98;;;27.00;92.90;;;;;;1902228;74;21180;-73
2023/01/15 03:28:42;;;;;;;24.52;20.32;;;27.00;92.40;;;;;;1876541;75;21083;-71
2023/01/15 03:31:12;;;;;;;;;;;27.10;93.30;;;;;;1902016;74;21349;-72
2023/01/15 03:33:44;;;;;;;25.45;19.92;;;27.30;89.10;;;;;;1902909;74;20495;-73
2023/01/15 03:36:15;;;;;;;24.32;19.37;;;27.20;73.40;;;;;;1898155;74;21135;-72
2023/01/15 03:38:49;;;;;;;22.55;18.77;;;27.30;74.30;;;;;;1900203;74;21269;-70
2023/01/15 03:41:42;;;;;;;24.63;18.95;;;27.40;73.80;;;;;;1907521;74;21274;-71
2023/01/15 03:44:24;;;;;;;26.35;18.70;;;27.40;71.80;;;;;;1865873;75;21193;-72
2023/01/15 03:47:06;;;;;;;23.02;17.85;;;27.60;70.90;;;;;;1848497;77;21132;-74
2023/01/15 03:49:58;;;;;;;24.45;19.02;;;27.60;70.80;;;;;;1863608;77;21536;-72
2023/01/15 03:52:44;;;;;;;21.55;19.15;;;27.70;70.90;;;;;;1843079;77;21064;-73
2023/01/15 03:55:17;;;;;;;29.07;21.17;;;27.80;70.90;;;;;;1890084;74;21179;-72
2023/01/15 03:58:12;;;;;;;27.32;21.05;;;27.90;73.40;;;;;;1897249;74;21654;-74
2023/01/15 04:00:48;;;;;;;30.62;23.35;;;27.90;69.80;;;;;;1858965;76;21128;-73
2023/01/15 04:03:28;;;;;;;25.70;19.23;;;28.10;68.80;;;;;;1853477;77;21202;-76
2023/01/15 04:05:56;;;;;;;;;;;28.20;69.00;;;;;;1848064;76;21222;-74
2023/01/15 04:08:31;;;;;;;25.37;20.62;;;28.30;69.10;;;;;;1859131;76;20275;-73
2023/01/15 04:11:03;;;;;;;23.05;16.60;;;28.40;67.50;;;;;;1853594;76;21179;-72
2023/01/15 04:13:38;;;;;;;19.37;15.88;;;28.50;64.90;;;;;;1853720;76;21156;-72
2023/01/15 04:16:10;;;;;;;22.60;15.63;;;28.60;63.90;;;;;;1853759;76;21718;-72
2023/01/15 04:18:49;;;;;;;23.27;15.98;;;28.70;62.30;;;;;;1853437;76;21653;-73
2023/01/15 04:21:24;;;;;;;21.45;15.83;;;28.80;61.00;;;;;;1901716;74;21163;-71
2023/01/15 04:23:55;;;;;;;20.80;16.23;;;29.00;61.80;;;;;;1865196;75;21614;-72
2023/01/15 04:26:26;;;;;;;19.87;15.05;;;29.10;61.60;;;;;;1872874;75;21091;-73
2023/01/15 04:28:57;;;;;;;18.90;14.20;;;29.20;59.70;;;;;;1906094;74;21545;-72
2023/01/15 04:31:31;;;;;;;19.95;15.18;;;29.30;59.40;;;;;;1907653;74;21529;-71
2023/01/15 04:34:03;;;;;;;16.85;12.90;;;29.30;59.20;;;;;;1891694;74;21103;-72
2023/01/15 04:36:38;;;;;;;18.00;13.30;;;29.40;56.90;;;;;;1863995;75;21251;-73
2023/01/15 04:39:10;;;;;;;16.42;13.05;;;29.50;56.60;;;;;;1889823;74;21151;-72
2023/01/15 04:44:30;;;;;;;17.98;12.98;;;29.70;56.40;;;;;;1861113;76;21708;-71
2023/01/15 04:47:02;;;;;;;20.90;14.68;;;29.80;55.50;;;;;;1881842;74;21124;-71
2023/01/15 04:49:33;;;;;;;20.75;14.23;;;29.90;56.30;;;;;;1894540;74;21540;-71
2023/01/15 04:52:05;;;;;;;15.35;13.20;;;29.90;55.10;;;;;;1899857;74;21132;-72
2023/01/15 04:54:37;;;;;;;17.77;14.25;;;30.00;55.50;;;;;;1908995;74;21129;-71
2023/01/15 04:57:10;;;;;;;18.80;14.63;;;30.10;56.20;;;;;;1898510;74;21242;-70
2023/01/15 04:59:46;;;;;;;20.43;15.33;;;30.20;55.60;;;;;;1896605;74;21128;-71
2023/01/15 05:02:23;;;;;;;18.45;14.93;;;30.30;55.00;;;;;;1891964;74;21274;-70
2023/01/15 05:04:58;;;;;;;16.57;13.28;;;30.30;54.60;;;;;;1903766;74;21505;-70
2023/01/15 05:07:29;;;;;;;21.15;11.80;;;30.40;54.70;;;;;;1903413;74;21536;-69
2023/01/15 05:10:00;;;;;;;12.78;10.98;;;30.40;54.50;;;;;;1863041;75;21186;-70
2023/01/15 05:12:32;;;;;;;16.62;12.50;;;30.50;54.90;;;;;;1885472;74;21075;-69
2023/01/15 05:15:03;;;;;;;18.20;13.90;;;30.60;52.80;;;;;;1874665;75;21551;-71
2023/01/15 05:17:40;;;;;;;18.75;13.38;;;30.60;52.90;;;;;;1870896;75;21077;-71
2023/01/15 05:20:28;;;;;;;20.68;15.65;;;30.70;52.20;;;;;;1890681;74;21611;-71
2023/01/15 05:23:00;;;;;;;20.80;14.40;;;30.80;53.10;;;;;;1893036;74;21054;-71
2023/01/15 05:25:31;;;;;;;17.90;12.30;;;30.90;51.20;;;;;;1882794;74;21264;-72
2023/01/15 05:28:02;;;;;;;16.30;11.25;;;31.00;50.40;;;;;;1851297;76;21171;-72
2023/01/15 05:30:36;;;;;;;14.87;11.60;;;31.00;49.10;;;;;;1864642;75;21663;-70
2023/01/15 05:33:09;;;;;;;19.10;13.22;;;31.00;49.50;;;;;;1893896;74;21084;-70
2023/01/15 05:35:40;;;;;;;14.60;10.72;;;31.10;49.50;;;;;;1862445;75;21162;-70
2023/01/15 05:38:12;;;;;;;15.13;11.03;;;31.10;48.70;;;;;;1861695;75;21153;-74
2023/01/15 05:40:44;;;;;;;14.30;9.98;;;31.10;50.10;;;;;;1861026;75;21701;-71
2023/01/15 05:43:16;;;;;;;18.20;11.88;;;31.20;50.00;;;;;;1892998;74;21636;-70
2023/01/15 05:45:51;;;;;;;11.33;9.30;;;31.20;49.00;;;;;;1865819;75;21120;-71
2023/01/15 05:48:23;;;;;;;14.18;10.32;;;31.30;47.40;;;;;;1881591;74;21535;-72
2023/01/15 05:50:54;;;;;;;18.90;12.47;;;31.40;47.50;;;;;;1870269;75;21217;-71
2023/01/15 05:53:26;;;;;;;19.82;14.50;;;31.40;48.40;;;;;;1873432;75;21696;-72
2023/01/15 05:55:58;;;;;;;14.07;10.32;;;31.40;48.40;;;;;;1905905;74;21116;-70
2023/01/15 05:58:29;;;;;;;17.48;10.28;;;31.40;47.50;;;;;;1895502;74;21087;-72
2023/01/15 06:01:00;;;;;;;17.27;10.35;;;31.50;46.30;;;;;;1861066;75;21196;-72
2023/01/15 06:03:32;;;;;;;12.50;9.90;;;31.50;47.00;;;;;;1894692;74;21162;-73
2023/01/15 06:06:03;;;;;;;12.95;9.95;;;31.50;46.70;;;;;;1894450;74;21072;-70
2023/01/15 06:08:36;;;;;;;13.80;9.53;;;31.60;45.90;;;;;;1875894;76;21099;-69
2023/01/15 06:11:07;;;;;;;16.07;10.75;;;31.60;45.50;;;;;;1923580;73;21084;-71
2023/01/15 06:13:41;;;;;;;14.80;9.75;;;31.60;45.60;;;;;;1927547;73;21650;-73
2023/01/15 06:16:14;;;;;;;12.13;8.80;;;31.60;45.60;;;;;;1931088;73;21151;-70
2023/01/15 06:18:47;;;;;;;10.55;7.58;;;31.70;45.00;;;;;;1919180;73;21192;-71
2023/01/15 06:21:18;;;;;;;10.95;7.75;;;31.70;41.90;;;;;;1932673;72;21116;-71
2023/01/15 06:23:55;;;;;;;10.45;8.48;;;31.70;42.20;;;;;;1898361;73;21128;-71
2023/01/15 06:26:45;;;;;;;12.80;9.15;;;31.70;41.90;;;;;;1911672;73;21170;-72
2023/01/15 06:29:17;;;;;;;14.50;10.08;;;31.80;42.10;;;;;;1835866;76;21124;-71
2023/01/15 06:31:49;;;;;;;11.63;10.32;;;31.80;44.90;;;;;;1843115;76;21707;-70
2023/01/15 06:34:21;;;;;;;12.63;11.30;;;31.80;44.90;;;;;;1846117;76;21275;-71
2023/01/15 06:36:56;;;;;;;21.00;10.30;;;31.90;44.50;;;;;;1844036;76;21247;-74
2023/01/15 06:39:27;;;;;;;13.98;9.98;;;31.90;43.50;;;;;;1840944;76;21124;-72
2023/01/15 06:47:35;;;;;;;16.82;11.60;;;32.00;44.90;;;;;;1842644;76;21211;-72
2023/01/15 06:50:07;;;;;;;14.05;9.88;;;32.00;44.20;;;;;;1838949;76;21097;-73
2023/01/15 06:52:39;;;;;;;13.75;9.38;;;32.10;43.60;;;;;;1848860;76;21151;-72
2023/01/15 06:55:10;;;;;;;15.63;11.10;;;32.10;44.00;;;;;;1836173;76;21742;-73
2023/01/15 06:58:02;;;;;;;15.00;10.45;;;32.10;41.80;;;;;;1831792;76;21237;-71
2023/01/15 07:00:33;;;;;;;12.25;9.08;;;32.20;43.90;;;;;;1876954;75;21161;-72
2023/01/15 07:03:16;;;;;;;10.50;8.63;;;32.20;42.10;;;;;;1905776;74;21563;-73
2023/01/15 07:05:41;;;;;;;12.45;9.10;;;32.20;42.30;;;;;;1841159;76;21229;-72
2023/01/15 07:08:13;;;;;;;11.00;8.73;;;32.20;43.90;;;;;;1905895;74;21242;-71
2023/01/15 07:10:45;;;;;;;10.65;8.55;;;32.10;42.90;;;;;;1878393;75;21686;-72
2023/01/15 07:13:19;;;;;;;9.73;8.58;;;32.10;42.40;;;;;;1847813;76;21802;-73
2023/01/15 07:15:53;;;;;;;12.40;8.75;;;32.10;42.10;;;;;;1875689;75;21223;-73
2023/01/15 07:18:38;;;;;;;13.55;9.30;;;32.10;42.30;;;;;;1877790;74;21100;-72
2023/01/15 07:21:05;;;;;;;11.93;8.75;;;32.10;44.30;;;;;;1840709;76;21850;-70
2023/01/15 07:23:44;;;;;;;;;;;32.20;42.00;;;;;;1888391;75;21200;-71
2023/01/15 07:26:15;;;;;;;11.93;9.53;;;32.10;44.00;;;;;;1886321;75;20206;-71
2023/01/15 07:28:59;;;;;;;13.18;9.10;;;32.10;42.20;;;;;;1861601;76;21193;-72
2023/01/15 07:31:30;;;;;;;12.40;8.58;;;32.10;42.20;;;;;;1843758;75;21100;-70
2023/01/15 07:34:02;;;;;;;12.50;8.43;;;32.10;42.50;;;;;;1829693;77;21106;-72
2023/01/15 07:36:33;;;;;;;14.85;9.88;;;32.10;43.20;;;;;;1828742;77;21151;-71
2023/01/15 07:39:11;;;;;;;11.88;8.73;;;32.10;43.60;;;;;;1865409;76;21144;-71
2023/01/15 07:50:25;;;;;;;13.18;9.40;;;32.00;43.90;;;;;;1865013;76;21697;-71
2023/01/15 07:52:56;;;;;;;12.15;9.85;;;32.00;42.30;;;;;;1865674;76;21217;-72
2023/01/15 07:55:28;;;;;;;11.03;9.15;;;32.00;43.80;;;;;;1868922;76;21116;-72
2023/01/15 07:58:03;;;;;;;14.05;9.45;;;31.90;42.60;;;;;;1865286;76;22115;-71
2023/01/15 08:00:33;;;;;;;12.58;9.35;;;31.90;44.30;;;;;;1857526;76;21083;-72
2023/01/15 08:03:05;;;;;;;12.78;9.60;;;31.90;43.30;;;;;;1823138;77;21599;-72
2023/01/15 08:05:36;;;;;;;12.35;9.35;;;31.80;43.30;;;;;;1843719;77;21206;-71
2023/01/15 08:08:27;;;;;;;13.15;9.03;;;31.90;44.00;;;;;;1842286;77;21681;-72
2023/01/15 08:16:49;;;;;;;10.60;8.88;;;31.70;43.20;;;;;;1800919;78;21176;-74
2023/01/15 08:19:21;;;;;;;11.83;9.55;;;31.70;42.70;;;;;;1877960;76;21209;-73
2023/01/15 08:21:56;;;;;;;10.80;9.05;;;31.60;43.60;;;;;;1861892;76;21300;-72
2023/01/15 08:24:34;;;;;;;13.13;8.65;;;31.60;43.00;;;;;;1855076;76;21720;-73
2023/01/15 08:27:24;;;;;;;16.20;9.00;;;31.50;42.90;;;;;;1811504;78;21061;-89
2023/01/15 08:29:57;;;;;;;11.97;9.10;;;31.50;43.20;;;;;;1836466;77;21191;-87
2023/01/15 08:32:31;;;;;;;13.28;9.63;;;31.50;42.20;;;;;;1838246;77;21205;-90
2023/01/15 08:35:23;;;;;;;12.43;8.60;;;31.50;42.70;;;;;;1836827;77;21213;-88
2023/01/15 08:38:06;;;;;;;12.23;8.70;;;31.50;43.40;;;;;;1840523;77;21101;-85
2023/01/15 08:40:57;;;;;;;11.20;9.13;;;31.50;43.10;;;;;;1841281;77;21253;-86
2023/01/15 08:43:17;;;;;;;10.65;8.73;;;31.40;44.40;;;;;;1842311;77;21638;-90
2023/01/15 08:46:01;;;;;;;15.60;9.00;;;31.40;43.30;;;;;;1811345;78;21166;-89
2023/01/15 08:48:40;;;;;;;11.83;8.13;;;31.40;43.80;;;;;;1829551;77;21206;-88
2023/01/15 08:51:13;;;;;;;10.82;8.43;;;31.30;43.90;;;;;;1836610;77;21088;-87
2023/01/15 08:53:44;;;;;;;14.63;8.80;;;31.30;43.30;;;;;;1838486;77;21134;-86
2023/01/15 08:56:19;;;;;;;13.93;8.55;;;31.30;42.70;;;;;;1836680;78;21076;-88
2023/01/15 08:58:50;;;;;;;10.75;8.33;;;31.30;42.90;;;;;;1837301;78;21126;-87
2023/01/15 09:01:24;;;;;;;16.17;8.38;;;31.40;43.10;;;;;;1846930;77;21200;-89
2023/01/15 09:03:57;;;;;;;10.03;8.55;;;31.40;43.50;;;;;;1832463;78;21084;-88
2023/01/15 09:06:30;;;;;;;11.45;8.48;;;31.30;43.70;;;;;;1851401;77;21622;-86
2023/01/15 09:09:01;;;;;;;12.40;8.90;;;31.30;43.70;;;;;;1861517;77;21077;-85
2023/01/15 09:11:32;;;;;;;12.00;8.03;;;31.30;43.40;;;;;;1869120;75;21090;-87
2023/01/15 09:14:03;;;;;;;10.23;8.93;;;31.30;43.70;;;;;;1804108;78;21687;-87
2023/01/15 09:16:35;;;;;;;11.40;8.55;;;31.30;43.30;;;;;;1832501;77;21061;-87
2023/01/15 09:19:07;;;;;;;11.83;8.98;;;31.30;43.80;;;;;;1828617;77;21072;-88
2023/01/15 09:21:41;;;;;;;12.60;8.90;;;31.30;43.70;;;;;;1845195;77;21099;-85
2023/01/15 09:24:11;;;;;;;12.88;9.43;;;31.30;43.40;;;;;;1859146;77;21259;-86
2023/01/15 09:26:52;;;;;;;13.20;8.83;;;31.30;43.70;;;;;;1858523;76;21220;-87
2023/01/15 09:29:23;;;;;;;12.47;8.93;;;31.20;43.70;;;;;;1859617;76;21157;-86
2023/01/15 09:31:54;;;;;;;15.90;8.48;;;31.20;43.90;;;;;;1860271;76;21176;-84
2023/01/15 09:34:25;;;;;;;12.35;8.88;;;31.20;44.10;;;;;;1855052;76;21102;-86
2023/01/15 09:36:57;;;;;;;10.85;8.68;;;31.20;44.10;;;;;;1859512;76;21566;-87
2023/01/15 09:39:28;;;;;;;11.38;8.18;;;31.20;43.80;;;;;;1859313;77;21593;-87
2023/01/15 09:42:13;;;;;;;11.40;9.65;;;31.20;44.60;;;;;;1856143;76;21225;-87
2023/01/15 09:44:53;;;;;;;15.68;8.88;;;31.20;44.50;;;;;;1859618;77;21180;-88
2023/01/15 09:47:42;;;;;;;12.33;8.55;;;31.10;44.10;;;;;;1855919;77;21130;-87
2023/01/15 09:50:30;;;;;;;11.90;8.97;;;31.10;43.70;;;;;;1834400;77;21185;-87
2023/01/15 09:53:03;;;;;;;13.78;8.95;;;31.00;43.90;;;;;;1857785;77;21139;-86
2023/01/15 09:55:37;;;;;;;10.80;8.88;;;31.00;44.20;;;;;;1871662;76;21090;-87
2023/01/15 09:58:10;;;;;;;13.75;10.13;;;31.00;44.50;;;;;;1866373;75;21244;-88
2023/01/15 10:00:43;;;;;;;10.93;8.88;;;30.90;44.40;;;;;;1873848;75;21618;-88
2023/01/15 10:03:26;;;;;;;13.62;8.73;;;30.80;44.40;;;;;;1829490;77;21613;-86
2023/01/15 10:06:11;;;;;;;11.05;7.87;;;30.80;44.70;;;;;;1859715;76;21186;-86
2023/01/15 10:08:50;;;;;;;14.33;11.03;;;30.80;45.00;;;;;;1858666;76;21535;-85
2023/01/15 10:12:33;;;;;;;11.08;8.73;;;30.70;45.80;;;;;;1858048;76;21237;-86
2023/01/15 10:14:04;;;;;;;9.73;8.25;;;30.70;45.40;;;;;;1826607;76;21205;-86
2023/01/15 10:16:34;;;;;;;;;;;30.60;45.10;;;;;;1826744;77;21112;-87
2023/01/15 10:19:05;;;;;;;13.58;9.33;;;30.60;46.20;;;;;;1782108;79;20465;-86
2023/01/15 10:21:50;;;;;;;15.48;9.83;;;30.60;45.70;;;;;;1846343;76;21099;-86
2023/01/15 10:24:36;;;;;;;13.08;9.58;;;30.50;46.60;;;;;;1826858;76;21115;-85
2023/01/15 10:27:21;;;;;;;16.43;11.00;;;30.50;46.90;;;;;;1832139;77;21104;-86
2023/01/15 10:30:04;;;;;;;22.73;10.38;;;30.50;47.30;;;;;;1806885;78;21212;-88
2023/01/15 10:32:58;;;;;;;15.08;11.15;;;30.40;47.40;;;;;;1827558;77;21069;-85
2023/01/15 10:35:51;;;;;;;14.55;10.88;;;30.40;47.40;;;;;;1795485;79;21592;-88
2023/01/15 10:38:36;;;;;;;18.75;10.88;;;30.20;47.30;;;;;;1842160;76;21180;-86
2023/01/15 10:41:27;;;;;;;18.10;11.15;;;30.20;48.10;;;;;;1832877;77;21112;-87
2023/01/15 10:44:12;;;;;;;17.55;11.22;;;30.10;48.20;;;;;;1806897;78;21112;-85
2023/01/15 10:46:46;;;;;;;15.95;10.85;;;30.10;48.90;;;;;;1839402;78;21225;-86
2023/01/15 10:49:20;;;;;;;16.70;11.08;;;30.00;48.30;;;;;;1840746;77;21060;-81
2023/01/15 10:52:05;;;;;;;14.83;11.08;;;29.90;47.80;;;;;;1816832;76;21159;-87
2023/01/15 10:54:44;;;;;;;16.93;11.65;;;29.90;48.20;;;;;;1833701;76;21162;-86
2023/01/15 10:57:32;;;;;;;16.17;11.38;;;29.90;47.70;;;;;;1821123;78;21524;-85
2023/01/15 11:00:05;;;;;;;17.47;11.57;;;29.80;48.60;;;;;;1830572;76;21567;-85
2023/01/15 11:02:46;;;;;;;21.55;12.20;;;29.80;49.00;;;;;;1846162;75;21157;-86
2023/01/15 11:05:20;;;;;;;14.70;11.12;;;29.70;49.30;;;;;;1821910;75;21104;-86
2023/01/15 11:07:52;;;;;;;18.57;11.28;;;29.70;49.50;;;;;;1846152;77;21256;-85
2023/01/15 11:10:25;;;;;;;18.62;11.90;;;29.60;49.00;;;;;;1840822;77;21111;-85
2023/01/15 11:21:33;;;;;;;29.07;13.68;;;29.30;50.40;;;;;;1825084;78;21185;-85
2023/01/15 11:24:04;;;;;;;21.20;12.95;;;29.20;50.60;;;;;;1820212;77;21170;-85
2023/01/15 11:26:35;;;;;;;21.00;13.03;;;29.20;51.50;;;;;;1826765;77;21088;-85
2023/01/15 11:29:18;;;;;;;23.05;14.07;;;29.10;51.70;;;;;;1824946;78;21053;-84
2023/01/15 11:31:49;;;;;;;19.20;13.38;;;29.00;51.40;;;;;;1814941;77;21186;-84
2023/01/15 11:34:23;;;;;;;22.20;13.50;;;28.90;52.70;;;;;;1832570;77;21068;-85
2023/01/15 11:37:06;;;;;;;19.77;13.08;;;28.90;52.90;;;;;;1822812;77;21111;-85
2023/01/15 11:39:37;;;;;;;21.90;13.83;;;28.80;53.20;;;;;;1822953;77;21154;-84
2023/01/15 11:50:58;;;;;;;17.42;12.93;;;28.70;53.80;;;;;;1855213;76;21131;-83
2023/01/15 11:53:29;;;;;;;;;;;28.60;55.10;;;;;;1846710;76;21078;-85
2023/01/15 11:56:03;;;;;;;25.00;16.45;;;28.60;54.70;;;;;;1853802;76;20166;-87
2023/01/15 11:58:43;;;;;;;21.27;14.80;;;28.50;54.50;;;;;;1853564;76;21216;-85
2023/01/15 12:01:35;;;;;;;26.10;15.90;;;28.50;54.50;;;;;;1850265;77;21177;-86
2023/01/15 12:04:10;;;;;;;23.83;14.60;;;28.40;54.80;;;;;;1854861;75;21138;-85
2023/01/15 12:06:44;;;;;;;32.78;19.17;;;28.40;55.20;;;;;;1847109;76;21134;-86
2023/01/15 12:09:24;;;;;;;25.68;18.25;;;28.40;55.80;;;;;;1843360;76;21246;-83
2023/01/15 12:12:03;;;;;;;31.75;17.42;;;28.30;54.20;;;;;;1846502;76;21149;-84
2023/01/15 12:14:43;;;;;;;26.05;16.62;;;28.30;53.90;;;;;;1859965;75;21222;-86
2023/01/15 12:17:33;;;;;;;24.75;17.32;;;28.30;54.10;;;;;;1868386;75;21142;-85
2023/01/15 12:20:29;;;;;;;28.90;19.37;;;28.30;54.50;;;;;;1844965;77;21226;-85
2023/01/15 12:23:35;;;;;;;31.95;19.57;;;28.30;53.80;;;;;;1847132;76;21141;-86
2023/01/15 12:26:25;;;;;;;27.73;18.60;;;28.30;53.60;;;;;;1847621;77;21126;-86
2023/01/15 12:29:08;;;;;;;31.40;18.95;;;28.30;54.50;;;;;;1853372;77;21099;-85
2023/01/15 12:31:42;;;;;;;31.27;19.25;;;28.30;54.30;;;;;;1848128;76;21566;-85
2023/01/15 12:34:16;;;;;;;32.10;20.32;;;28.30;54.30;;;;;;1852243;77;21609;-85
2023/01/15 12:37:05;;;;;;;25.75;20.08;;;28.30;54.80;;;;;;1854854;76;21133;-87
2023/01/15 12:39:54;;;;;;;32.60;18.85;;;28.20;54.70;;;;;;1855680;76;21130;-84
2023/01/15 12:45:19;;;;;;;29.65;20.23;;;28.20;54.40;;;;;;1856023;76;21625;-84
2023/01/15 12:48:15;;;;;;;29.15;19.62;;;28.20;54.60;;;;;;1851696;76;21083;-85
2023/01/15 12:50:57;;;;;;;28.55;19.02;;;28.20;54.30;;;;;;1853409;77;21156;-85
2023/01/15 12:53:29;;;;;;;26.00;18.87;;;28.10;54.20;;;;;;1855501;76;21076;-85
2023/01/15 12:56:11;;;;;;;25.60;18.50;;;28.10;54.50;;;;;;1855256;76;21075;-84
2023/01/15 12:59:02;;;;;;;;;;;;;;;;;;;;;
2023/01/15 13:02:15;;;;;;;28.70;19.30;;;28.10;55.10;;;;;;1770728;80;21190;-86
2023/01/15 13:04:56;;;;;;;29.63;20.52;;;28.10;55.20;;;;;;1716269;81;21165;-85
2023/01/15 13:07:44;;;;;;;25.60;18.42;;;28.00;55.60;;;;;;1739296;81;21172;-86
2023/01/15 13:10:36;;;;;;;28.83;19.07;;;28.00;56.10;;;;;;1740736;81;21121;-86
2023/01/15 13:13:23;;;;;;;27.37;19.40;;;28.00;56.70;;;;;;1723012;80;21194;-86
2023/01/15 13:16:24;;;;;;;28.55;20.12;;;28.00;57.20;;;;;;1731637;82;21574;-86
2023/01/15 13:19:10;;;;;;;25.72;19.70;;;27.90;57.70;;;;;;1722322;82;21368;-86
2023/01/15 13:21:45;;;;;;;27.42;19.55;;;27.90;58.10;;;;;;1718617;82;21146;-87
2023/01/15 13:24:52;;;;;;;29.48;19.60;;;27.90;58.50;;;;;;1725010;82;21292;-87
2023/01/15 13:27:52;;;;;;;30.70;20.15;;;27.90;59.40;;;;;;1725343;82;21247;-85
2023/01/15 13:30:56;;;;;;;33.05;20.37;;;27.90;59.50;;;;;;1721729;82;21156;-88
2023/01/15 13:33:39;;;;;;;30.00;20.08;;;27.80;60.10;;;;;;1707836;82;21375;-87
2023/01/15 13:36:21;;;;;;;35.35;20.30;;;27.80;61.00;;;;;;1728295;82;21201;-89
2023/01/15 13:38:57;;;;;;;29.90;20.97;;;27.80;61.90;;;;;;1788981;75;21087;-87
2023/01/15 13:44:31;;;;;;;27.67;20.70;;;27.70;62.00;;;;;;1839006;77;21143;-87
2023/01/15 13:47:08;;;;;;;29.70;20.55;;;27.70;62.50;;;;;;1832541;77;21112;-87
2023/01/15 13:49:44;;;;;;;29.37;19.92;;;27.60;62.60;;;;;;1835243;77;21104;-86
2023/01/15 13:52:23;;;;;;;29.80;20.97;;;27.60;62.20;;;;;;1834086;77;21216;-87
2023/01/15 13:54:57;;;;;;;30.12;19.95;;;27.50;62.00;;;;;;1830696;78;21120;-87
2023/01/15 13:57:36;;;;;;;29.87;21.95;;;27.50;62.00;;;;;;1832098;77;21151;-86
2023/01/15 14:00:10;;;;;;;30.77;19.52;;;27.50;61.90;;;;;;1831582;78;21230;-86
2023/01/15 14:02:42;;;;;;;32.58;20.40;;;27.50;61.90;;;;;;1830242;77;21053;-84
2023/01/15 14:05:28;;;;;;;28.60;21.05;;;27.50;62.10;;;;;;1829548;77;21190;-85
2023/01/15 14:08:16;;;;;;;33.55;23.15;;;27.50;62.10;;;;;;1825288;77;21071;-86
2023/01/15 14:10:48;;;;;;;33.50;22.32;;;27.40;62.20;;;;;;1833436;77;21588;-85
2023/01/15 14:13:47;;;;;;;31.50;21.55;;;27.40;62.70;;;;;;1831338;75;21154;-86
2023/01/15 14:16:29;;;;;;;32.70;23.35;;;27.30;62.90;;;;;;1822405;77;21144;-85
2023/01/15 14:19:20;;;;;;;28.62;21.12;;;27.30;63.00;;;;;;1821625;78;21081;-86
2023/01/15 14:22:18;;;;;;;27.58;20.95;;;27.30;63.10;;;;;;1834687;76;21105;-85